Addison Mizner Elementary School FL US WEATHERSTEM current weather conditions

sailwx.info

Wind from 190 at 7 knots gusting 7

Air temperature 30.0° C
Dewpoint 24.8° C

Last reported at 2020-Jul-10 02:00 UTC.
Time now 2020-Jul-10 03:09 UTC

Location: N 26°21' W 080°07'.
View on Google Maps.

See reports from other nearby stations

  
Tides and Currents Weather Stations Pressure Air Temp Water Temp Dewpoint Dewpoint Depression Visibility Wind Speed Wind Dir Waves Ship Positions
date/time (UTC)wind fromknots sea level pressurealtimeterstation pressurevisibilityair tempwater tempwave heightnotes
2020-Jul-10 02:00 190 7 gusting 7 30.0
2020-Jul-10 01:40 200 6 gusting 6 30.0
2020-Jul-10 01:30 190 6 gusting 6 30.0
2020-Jul-10 01:20 190 6 gusting 6 30.0
2020-Jul-10 00:50 170 9 gusting 9 30.0
2020-Jul-10 00:10 160 11 gusting 11 30.6
2020-Jul-09 22:40 140 10 gusting 10 32.2
2020-Jul-09 22:10 130 10 gusting 10 32.8
2020-Jul-09 21:30 150 9 gusting 9 33.3
2020-Jul-09 21:10 170 8 gusting 8 33.3
2020-Jul-09 19:50 260 7 gusting 7 35.0
2020-Jul-09 19:20 260 7 gusting 7 34.4
2020-Jul-09 19:10 260 7 gusting 7 34.4
2020-Jul-09 18:20 250 8 gusting 8 33.9
2020-Jul-09 18:10 250 8 gusting 8 33.9
2020-Jul-09 17:50 300 9 gusting 9 33.9
2020-Jul-09 17:40 220 6 gusting 6 33.9
2020-Jul-09 17:30 220 6 gusting 6 33.9
2020-Jul-09 16:50 250 7 gusting 7 33.3
2020-Jul-09 16:40 260 7 gusting 7 33.3
2020-Jul-09 15:50 280 6 gusting 6 32.8
2020-Jul-09 15:40 280 6 gusting 6 32.2
2020-Jul-09 14:30 310 6 gusting 6 31.1
2020-Jul-09 14:00 300 6 gusting 6 30.6
2020-Jul-09 12:20 290 4 gusting 4 28.3
2020-Jul-09 11:50 300 3 gusting 3 27.8
2020-Jul-09 11:20 300 2 gusting 2 26.7
2020-Jul-09 10:50 300 4 gusting 4 26.1
2020-Jul-09 09:50 290 4 gusting 4 26.1
2020-Jul-09 09:40 290 4 gusting 4 26.7
2020-Jul-09 06:20 270 3 gusting 3 26.7
2020-Jul-09 06:10 270 2 gusting 2 26.7
2020-Jul-09 06:00 270 2 gusting 2 26.7
2020-Jul-09 05:40 270 2 gusting 2 26.7
2020-Jul-09 04:30 250 4 gusting 4 27.2
2020-Jul-09 04:00 240 4 gusting 4 27.2
2020-Jul-09 03:20 220 3 gusting 3 27.2
2020-Jul-09 02:50 27.2
2020-Jul-09 02:40 210 3 gusting 3 28.9
2020-Jul-09 01:40 240 1 gusting 1 29.4
2020-Jul-09 01:20 220 1 gusting 1 29.4
2020-Jul-09 01:10 210 1 gusting 1 29.4
2020-Jul-09 00:00 30.0
2020-Jul-08 20:00 210 5 gusting 5 27.8
2020-Jul-08 19:50 210 5 gusting 5 27.2
2020-Jul-08 19:30 170 6 gusting 6 26.7
2020-Jul-08 19:20 160 6 gusting 6 26.7
2020-Jul-08 18:40 120 6 gusting 6 26.7
2020-Jul-08 18:00 330 13 gusting 18 27.2
2020-Jul-08 17:50 320 13 gusting 13 25.6
2020-Jul-08 17:30 320 19 gusting 19 27.2
2020-Jul-08 16:30 130 6 gusting 6 33.9
2020-Jul-08 15:50 140 5 gusting 5 33.9
2020-Jul-08 15:40 140 5 gusting 5 33.9
2020-Jul-08 15:20 150 5 gusting 5 33.9
2020-Jul-08 15:10 140 4 gusting 4 33.9
2020-Jul-08 14:40 190 4 gusting 4 33.3
2020-Jul-08 13:50 180 2 gusting 2 32.2
2020-Jul-08 13:20 180 2 gusting 2 31.7
2020-Jul-08 13:10 31.1
2020-Jul-08 12:40 190 2 gusting 2 30.0
2020-Jul-08 12:10 28.9
2020-Jul-08 11:30 27.2
2020-Jul-08 11:10 26.1
2020-Jul-08 10:20 26.1
2020-Jul-08 09:30 310 1 gusting 1 26.1
2020-Jul-08 07:50 300 0 gusting 0 26.7
2020-Jul-08 07:40 300 0 gusting 0 26.7
2020-Jul-08 04:00 320 1 gusting 1 27.8
2020-Jul-08 03:30 250 0 gusting 0 27.8
2020-Jul-08 03:20 240 0 gusting 0 27.8
2020-Jul-08 03:10 240 1 gusting 1 27.8